Onweer radar Meer informatie blitzortung!


Regen radar Meer informatie rain snow radar


Bezoek onze andere website:

Template documentation
and downloads

And another site



Het weer levert geen direct gevaar op.    Er zijn geen waarschuwingen afgegeven.

METAR rapporten vliegvelden

   
EBAW - Antwerp
Gewijzigd: 17-11-2018 14:50
Helder  
Helder  
   Wind: Oosten 18.5 km/h
Wind: Oosten 18.5 km/h
Zicht: meer dan 10 km
Bewolking: Helder
EBAW 171350Z 09010KT CAVOK 09/// Q1028 NOSIG
EBLG - Li├Ęge
Gewijzigd: 17-11-2018 14:50
Helder  
Helder  
   Wind: NO 24.1 km/h
Wind: NO 24.1 km/h
Temperatuur: 8°C
Voelt als: 4°C
Dauwpunt: 1°C
Vochtigheid: 62%
Barometer: 1027 hPa
Zicht: meer dan 10 km
Bewolking: Helder
EBLG 171350Z 04013KT CAVOK 08/01 Q1027 NOSIG
EBCV - Mons/Bergen
Gewijzigd: 17-11-2018 14:25
Helder  
Helder  
   Wind: ONO 20.4 km/h
Wind: ONO 20.4 km/h
Temperatuur: 9°C
Voelt als: 6°C
Dauwpunt: 3°C
Vochtigheid: 66%
Barometer: 1027 hPa
Bewolking: Helder
Zicht: meer dan 10 km
Bewolking: Helder
EBCV 171325Z AUTO 07011KT 9999 NCD 09/03 Q1027 BLU
EHBK - Maastricht
Gewijzigd: 17-11-2018 14:25
Helder  
Helder  
   Wind: ONO 20.4 km/h
Wind: ONO 20.4 km/h
Temperatuur: 9°C
Voelt als: 6°C
Dauwpunt: 1°C
Vochtigheid: 58%
Barometer: 1028 hPa
Bewolking: Helder
Zicht: meer dan 10 km
Bewolking: Helder
EHBK 171325Z AUTO 07011KT 030V110 9999 NCD 09/01 Q1028 NOSIG
ELLX - Luxemburg
Gewijzigd: 17-11-2018 14:50
Helder  
Helder  
   Wind: ONO 24.1 km/h
Wind: ONO 24.1 km/h
Temperatuur: 9°C
Voelt als: 6°C
Dauwpunt: -2°C
Vochtigheid: 46%
Barometer: 1025 hPa
Zicht: meer dan 10 km
Bewolking: Helder
ELLX 171350Z 06013KT CAVOK 09/M02 Q1025 NOSIG
EBOS - Oostende
Gewijzigd: 17-11-2018 14:50
Helder  
Helder  
   Wind: Oosten 24.1 km/h
Wind: Oosten 24.1 km/h
Temperatuur: 9°C
Voelt als: 6°C
Dauwpunt: 3°C
Vochtigheid: 66%
Barometer: 1027 hPa
Zicht: meer dan 10 km
Bewolking: Helder
EBOS 171350Z 08013KT CAVOK 09/03 Q1027 NOSIG

Script ontwikkeld door  Saratoga-weather.org Aangepast voor de template door  Weerstation Leuven

U vindt ons ook hier:

Het Weer Aktueel

European Weather Network

Weather Underground

Apparatuur in gebruik:

Weerstation
Oregon WMR 200

Webleverancier
one.com

Oregon WMR 200

one.com